Bookmark and Share
Track history (hours):
 

Suez Canal Bridge

Last reported at 2014-Apr-10 08:15 UTC. Time now 2014-Apr-20 18:58 UTC.
Position N 01°12' E 103°35'.
Warning: this ship's position is 10 days out of date.

Length 284.7 m; beam 40 m.

Type: Cargo ship. MMSI: 353704000.

NotesDate/timePositionNaut miles runAvg speedWind from/ knotsBaromVisibWave heightAir tempDewpointWater temp
2014-Apr-10 08:15N 01°12' E 103°35'912.4
2014-Apr-10 07:33N 01°15' E 103°43'3 2.8
2014-Apr-10 06:30N 01°17' E 103°45'0 0.0
2014-Apr-10 05:30N 01°17' E 103°45'0 0.0
2014-Apr-10 04:33N 01°17' E 103°45'0 0.0
2014-Apr-10 03:33N 01°17' E 103°45'0 0.0
2014-Apr-10 02:30N 01°17' E 103°45'0 0.0
2014-Apr-10 01:33N 01°17' E 103°45'0 0.0
2014-Apr-10 00:33N 01°17' E 103°45'0 0.0
2014-Apr-09 23:33N 01°17' E 103°45'0 0.0
2014-Apr-09 22:33N 01°17' E 103°45'0 0.1
2014-Apr-09 21:33N 01°17' E 103°45'0 0.1
2014-Apr-09 20:33N 01°17' E 103°45'0 0.0
2014-Apr-09 19:33N 01°17' E 103°45'1 0.8
2014-Apr-09 18:33N 01°17' E 103°44'5 5.0
2014-Apr-09 17:33N 01°13' E 103°48'  
2014-Apr-06 11:32N 22°34' E 114°16'0 0.3
2014-Apr-06 10:16N 22°34' E 114°16'0 0.0
2014-Apr-06 09:33N 22°34' E 114°16'0 0.1
2014-Apr-06 08:33N 22°34' E 114°16'0 0.0
2014-Apr-06 07:33N 22°34' E 114°16'0 0.0
2014-Apr-06 06:33N 22°34' E 114°16'0 0.0
2014-Apr-06 05:25N 22°34' E 114°16'0 0.0
2014-Apr-06 04:33N 22°34' E 114°16'0 0.1
2014-Apr-06 03:33N 22°34' E 114°16'0 0.0
2014-Apr-06 02:33N 22°34' E 114°16'0 0.0
2014-Apr-06 01:33N 22°34' E 114°16'0 0.0
2014-Apr-06 00:33N 22°34' E 114°16'0 0.0
2014-Apr-05 23:32N 22°34' E 114°16'0 0.1
2014-Apr-05 22:33N 22°34' E 114°16'0 0.1
2014-Apr-05 21:33N 22°34' E 114°16'0 0.0
2014-Apr-05 20:33N 22°34' E 114°16'0 0.3
2014-Apr-05 19:33N 22°34' E 114°16'17 2.4
2014-Apr-05 12:32N 22°20' E 114°08'0 0.0
2014-Apr-05 11:14N 22°20' E 114°08'0 0.0
2014-Apr-05 10:32N 22°20' E 114°08'1 0.2
2014-Apr-05 03:33N 22°19' E 114°06'10 8.2
2014-Apr-05 02:22N 22°11' E 114°12'31114.9
2014-Apr-04 05:33N 22°28' E 119°47'2020.4
2014-Apr-04 04:33N 22°32' E 120°09'1010.2
2014-Apr-04 03:33N 22°33' E 120°20'0 0.0
2014-Apr-04 02:28N 22°33' E 120°20'0 0.1
2014-Apr-04 01:33N 22°33' E 120°20'0 0.1
2014-Apr-04 00:33N 22°33' E 120°20'0 0.0
2014-Apr-03 23:33N 22°33' E 120°20'0 0.1
2014-Apr-03 22:34N 22°33' E 120°20'0 0.0
2014-Apr-03 21:33N 22°33' E 120°20'0 0.1
2014-Apr-03 20:33N 22°33' E 120°20'4 4.3
2014-Apr-03 19:33N 22°32' E 120°15'4 3.8
2014-Apr-03 18:33N 22°30' E 120°12'7 7.4
2014-Apr-03 17:33N 22°23' E 120°09'1312.7
2014-Apr-03 16:30N 22°10' E 120°03'2 1.9
2014-Apr-03 15:33N 22°12' E 120°03'2 2.1
2014-Apr-03 14:33N 22°14' E 120°04'2 1.9
2014-Apr-03 13:33N 22°16' E 120°03'1 1.4
2014-Apr-03 12:33N 22°17' E 120°03'1 0.8
2014-Apr-03 11:33N 22°18' E 120°02'1 1.0
2014-Apr-03 10:33N 22°19' E 120°02'1 1.2
2014-Apr-03 09:32N 22°20' E 120°02'1 0.7
2014-Apr-03 08:33N 22°21' E 120°01'1 1.3
2014-Apr-03 07:33N 22°22' E 120°01'1 1.3
2014-Apr-03 06:33N 22°23' E 120°01'1 1.4
2014-Apr-03 05:33N 22°25' E 120°01'1 1.0
2014-Apr-03 04:33N 22°26' E 120°00'0 0.5
2014-Apr-03 03:33N 22°26' E 120°00'1 0.6
2014-Apr-03 02:33N 22°26' E 119°59'1 0.8
2014-Apr-03 01:33N 22°27' E 119°60'2 1.7
2014-Apr-03 00:33N 22°28' E 120°01'2 1.6
2014-Apr-02 23:33N 22°30' E 120°00'3 3.4
2014-Apr-02 22:33N 22°28' E 119°57'10 9.7
2014-Apr-02 21:33N 22°36' E 119°51'1514.6
2014-Apr-02 20:33N 22°50' E 119°51'1515.2
2014-Apr-02 19:33N 23°06' E 119°51'  

Dump ship's entire track history

sailing weather and tide predictions

Suez Canal Bridge — HODM — position and weather